Time;durP1;ratioP1;P1;durP2;ratioP2;P2;SDS_P1;SDS_P2;PMS_P1;PMS_P2;Temp;Humidity;BMP_temperature;BMP_pressure;BME280_temperature;BME280_humidity;BME280_pressure;Samples;Min_cycle;Max_cycle;Signal;HPM_P1;HPM_P2
2022/05/04 00:00:14;;;;;;;14.97;6.23;;;5.10;99.90;;;;;;5110691;28;20515;-50
2022/05/04 00:02:41;;;;;;;18.13;7.03;;;5.10;99.90;;;;;;5103158;28;20709;-50
2022/05/04 00:05:07;;;;;;;19.90;7.57;;;5.10;99.90;;;;;;5109737;27;20461;-50
2022/05/04 00:07:33;;;;;;;12.87;6.27;;;5.10;99.90;;;;;;5104184;28;20445;-50
2022/05/04 00:09:59;;;;;;;16.63;5.90;;;5.10;99.90;;;;;;5106053;27;20814;-50
2022/05/04 00:12:25;;;;;;;16.37;6.63;;;5.00;99.90;;;;;;5095110;28;20185;-50
2022/05/04 00:14:51;;;;;;;17.20;8.77;;;5.00;99.90;;;;;;5100618;28;20196;-50
2022/05/04 00:17:16;;;;;;;19.10;7.30;;;5.00;99.90;;;;;;5110414;28;20471;-50
2022/05/04 00:19:42;;;;;;;12.60;5.50;;;4.90;99.90;;;;;;5089412;28;20276;-50
2022/05/04 00:22:07;;;;;;;16.63;7.17;;;4.90;99.90;;;;;;5105167;28;20192;-50
2022/05/04 00:24:33;;;;;;;16.73;6.63;;;5.00;99.90;;;;;;5109328;28;20247;-50
2022/05/04 00:26:59;;;;;;;18.63;6.73;;;4.90;99.90;;;;;;5092668;28;20193;-57
2022/05/04 00:29:24;;;;;;;16.77;7.43;;;5.00;99.90;;;;;;5107967;28;20184;-56
2022/05/04 00:31:50;;;;;;;17.00;6.80;;;4.90;99.90;;;;;;5109056;28;20210;-57
2022/05/04 00:34:16;;;;;;;17.07;7.30;;;4.90;99.90;;;;;;5104735;28;20203;-57
2022/05/04 00:36:41;;;;;;;15.90;7.10;;;4.80;99.90;;;;;;5105607;27;20430;-56
2022/05/04 00:39:07;;;;;;;17.50;6.30;;;4.80;99.90;;;;;;5108712;28;20263;-57
2022/05/04 00:41:32;;;;;;;13.43;6.23;;;4.80;99.90;;;;;;5106454;28;20204;-57
2022/05/04 00:43:58;;;;;;;14.00;7.70;;;4.70;99.90;;;;;;5106432;28;20231;-56
2022/05/04 00:46:23;;;;;;;13.00;7.20;;;4.60;99.90;;;;;;5108939;28;20555;-56
2022/05/04 00:48:50;;;;;;;17.63;6.93;;;4.70;99.90;;;;;;5107395;28;20204;-57
2022/05/04 00:51:16;;;;;;;19.37;7.03;;;4.70;1.00;;;;;;5109586;28;20639;-60
2022/05/04 00:53:43;;;;;;;15.93;7.30;;;4.80;1.00;;;;;;5101276;28;20422;-57
2022/05/04 00:56:09;;;;;;;21.67;7.47;;;4.80;1.00;;;;;;5109750;28;20506;-56
2022/05/04 00:58:55;;;;;;;18.10;8.00;;;4.90;1.00;;;;;;5094726;28;20443;-57
2022/05/04 01:01:26;;;;;;;16.23;7.53;;;5.00;1.00;;;;;;5108915;28;20185;-57
2022/05/04 01:03:51;;;;;;;21.07;7.57;;;5.00;1.00;;;;;;5100676;28;20465;-57
2022/05/04 01:06:17;;;;;;;19.93;7.53;;;5.00;1.00;;;;;;5109918;28;20439;-54
2022/05/04 01:08:42;;;;;;;22.60;7.90;;;5.00;1.00;;;;;;5103768;28;20234;-56
2022/05/04 01:11:08;;;;;;;17.90;6.90;;;5.00;1.00;;;;;;5109642;28;20184;-57
2022/05/04 01:13:34;;;;;;;25.43;7.10;;;5.00;1.00;;;;;;5107417;28;20301;-57
2022/05/04 01:15:59;;;;;;;20.10;6.80;;;5.00;1.00;;;;;;5105840;28;20576;-57
2022/05/04 01:18:25;;;;;;;25.33;6.87;;;5.00;1.00;;;;;;5108302;28;20965;-56
2022/05/04 01:20:50;;;;;;;15.20;6.80;;;4.90;21.30;;;;;;5097866;28;20639;-56
2022/05/04 01:23:16;;;;;;;11.63;7.60;;;4.90;34.50;;;;;;5107531;28;20556;-57
2022/05/04 01:25:42;;;;;;;16.20;7.20;;;4.90;59.50;;;;;;5106477;28;20216;-56
2022/05/04 01:28:08;;;;;;;17.27;7.20;;;4.90;2.10;;;;;;5107913;28;20994;-56
2022/05/04 01:30:35;;;;;;;17.73;7.17;;;4.90;18.30;;;;;;5109123;28;20315;-51
2022/05/04 01:33:01;;;;;;;19.60;7.40;;;4.80;37.50;;;;;;5104633;28;20193;-50
2022/05/04 01:35:27;;;;;;;24.33;7.23;;;4.80;95.40;;;;;;5107336;28;20765;-50
2022/05/04 01:37:52;;;;;;;22.30;8.03;;;4.80;99.90;;;;;;5109202;28;20441;-50
2022/05/04 01:40:18;;;;;;;21.30;7.63;;;4.80;16.60;;;;;;5103623;28;20207;-54
2022/05/04 01:42:43;;;;;;;18.37;7.13;;;4.80;32.00;;;;;;5108658;28;20192;-56
2022/05/04 01:45:09;;;;;;;9.37;6.53;;;4.70;19.50;;;;;;5096799;28;20228;-56
2022/05/04 01:47:36;;;;;;;20.93;7.30;;;4.70;23.30;;;;;;5112573;27;20584;-53
2022/05/04 01:50:03;;;;;;;16.90;7.63;;;4.70;46.70;;;;;;5111012;27;20430;-57
2022/05/04 01:52:29;;;;;;;23.00;7.30;;;4.70;26.10;;;;;;5110145;27;20436;-57
2022/05/04 01:54:55;;;;;;;18.63;7.20;;;4.60;85.40;;;;;;5106814;28;20923;-57
2022/05/04 01:57:21;;;;;;;18.20;6.97;;;4.60;95.40;;;;;;5102507;27;20447;-56
2022/05/04 01:59:46;;;;;;;26.07;8.43;;;4.50;50.10;;;;;;5112225;28;20204;-57
2022/05/04 02:02:12;;;;;;;14.90;6.40;;;4.50;99.90;;;;;;5104541;28;20189;-56
2022/05/04 02:04:37;;;;;;;20.13;7.00;;;4.50;99.90;;;;;;5111402;27;20220;-57
2022/05/04 02:07:03;;;;;;;22.07;8.37;;;4.50;99.90;;;;;;5093494;28;20184;-57
2022/05/04 02:09:29;;;;;;;15.27;6.30;;;4.50;99.90;;;;;;5112223;28;20196;-56
2022/05/04 02:11:55;;;;;;;14.20;7.20;;;4.50;99.90;;;;;;5111670;27;20437;-56
2022/05/04 02:14:21;;;;;;;13.23;7.47;;;4.50;99.90;;;;;;5108581;28;20631;-56
2022/05/04 02:16:46;;;;;;;19.63;7.60;;;4.50;99.90;;;;;;5111954;27;20615;-56
2022/05/04 02:19:12;;;;;;;21.60;7.77;;;4.50;99.90;;;;;;5108477;27;20243;-57
2022/05/04 02:21:37;;;;;;;17.83;6.97;;;4.50;99.90;;;;;;5111738;28;20232;-56
2022/05/04 02:24:03;;;;;;;23.90;6.70;;;4.50;99.90;;;;;;5101137;27;20310;-56
2022/05/04 02:26:28;;;;;;;16.90;7.70;;;4.50;99.90;;;;;;5111701;28;20640;-57
2022/05/04 02:28:54;;;;;;;11.00;6.40;;;4.50;99.90;;;;;;5109691;28;20271;-56
2022/05/04 02:31:20;;;;;;;18.60;7.63;;;4.50;99.90;;;;;;5112286;28;20638;-57
2022/05/04 02:33:47;;;;;;;27.83;7.73;;;4.50;99.90;;;;;;5110648;28;20200;-55
2022/05/04 02:38:57;;;;;;;17.23;6.50;;;4.50;99.90;;;;;;5108665;28;20513;-53
2022/05/04 02:41:23;;;;;;;16.13;8.07;;;4.50;99.90;;;;;;5111630;28;20459;-57
2022/05/04 02:43:49;;;;;;;25.20;7.77;;;4.60;49.00;;;;;;5108955;27;20230;-56
2022/05/04 02:46:19;;;;;;;27.40;7.20;;;4.50;1.00;;;;;;5107952;28;20430;-57
2022/05/04 02:48:46;;;;;;;15.50;7.00;;;4.50;1.00;;;;;;5092654;28;20407;-57
2022/05/04 02:51:12;;;;;;;16.73;7.40;;;4.50;1.00;;;;;;5101135;28;20438;-56
2022/05/04 02:53:38;;;;;;;19.30;7.10;;;4.50;13.40;;;;;;5112201;28;20516;-54
2022/05/04 02:56:05;;;;;;;13.47;7.50;;;4.50;9.30;;;;;;5104860;27;20541;-56
2022/05/04 02:58:31;;;;;;;26.43;8.23;;;4.40;25.00;;;;;;5108487;28;20601;-57
2022/05/04 03:02:26;;;;;;;18.63;7.80;;;4.40;59.50;;;;;;5106803;27;20434;-56
2022/05/04 03:03:52;;;;;;;19.93;9.03;;;4.40;99.90;;;;;;5110014;28;20216;-56
2022/05/04 03:06:18;;;;;;;16.20;7.00;;;4.40;64.30;;;;;;5099505;27;20444;-57
2022/05/04 03:08:43;;;;;;;16.80;7.37;;;4.40;64.40;;;;;;5112233;28;20566;-56
2022/05/04 03:13:53;;;;;;;17.47;8.03;;;4.40;1.00;;;;;;5110735;27;20202;-56
2022/05/04 03:16:18;;;;;;;22.10;8.20;;;4.40;1.00;;;;;;5110020;28;20442;-57
2022/05/04 03:18:44;;;;;;;15.60;7.70;;;4.40;16.40;;;;;;5108648;28;20242;-51
2022/05/04 03:21:09;;;;;;;19.07;7.90;;;4.30;30.60;;;;;;5102896;28;20189;-50
2022/05/04 03:23:35;;;;;;;19.07;9.30;;;4.30;75.80;;;;;;5108632;27;20263;-50
2022/05/04 03:26:01;;;;;;;18.13;8.80;;;4.30;99.90;;;;;;5110490;28;20552;-50
2022/05/04 03:28:26;;;;;;;22.70;8.70;;;4.30;99.90;;;;;;5110032;27;20437;-50
2022/05/04 03:30:52;;;;;;;23.43;8.23;;;4.30;99.90;;;;;;5109525;28;20646;-51
2022/05/04 03:33:17;;;;;;;23.40;9.00;;;4.30;99.90;;;;;;5106236;28;20193;-51
2022/05/04 03:35:43;;;;;;;21.07;8.80;;;4.30;99.90;;;;;;5110113;28;20188;-51
2022/05/04 03:38:08;;;;;;;17.00;8.70;;;4.20;99.90;;;;;;5109130;28;20201;-50
2022/05/04 03:40:34;;;;;;;28.00;9.23;;;4.20;99.90;;;;;;5108067;28;20253;-50
2022/05/04 03:43:00;;;;;;;22.20;9.17;;;4.30;99.90;;;;;;5110207;27;20299;-50
2022/05/04 03:45:27;;;;;;;16.40;7.73;;;4.30;99.90;;;;;;5110513;27;20212;-51
2022/05/04 03:47:53;;;;;;;17.87;8.33;;;4.20;99.90;;;;;;5110617;28;20512;-50
2022/05/04 03:50:18;;;;;;;20.60;7.43;;;4.30;99.90;;;;;;5098773;27;20501;-50
2022/05/04 03:52:44;;;;;;;18.10;8.07;;;4.30;99.90;;;;;;5110959;28;20188;-50
2022/05/04 03:55:09;;;;;;;23.20;8.83;;;4.30;99.90;;;;;;5107212;27;20654;-50
2022/05/04 03:57:35;;;;;;;25.63;8.90;;;4.30;99.90;;;;;;5111564;28;20180;-50
2022/05/04 04:00:00;;;;;;;26.53;8.80;;;4.20;99.90;;;;;;5108247;28;20282;-51
2022/05/04 04:02:26;;;;;;;19.03;9.17;;;4.20;99.90;;;;;;5111030;28;20255;-50
2022/05/04 04:04:51;;;;;;;18.70;8.67;;;4.20;99.90;;;;;;5103655;27;20216;-50
2022/05/04 04:07:17;;;;;;;20.87;8.67;;;4.10;99.90;;;;;;5110681;28;20210;-57
2022/05/04 04:09:42;;;;;;;22.03;9.30;;;4.10;1.00;;;;;;5103235;28;20196;-56
2022/05/04 04:12:08;;;;;;;19.20;9.30;;;4.20;1.00;;;;;;5109942;28;20239;-57
2022/05/04 04:14:34;;;;;;;23.63;9.00;;;4.20;1.00;;;;;;5108736;28;20228;-50
2022/05/04 04:16:59;;;;;;;17.50;9.00;;;4.20;1.00;;;;;;5107505;28;20446;-50
2022/05/04 04:19:25;;;;;;;17.80;8.47;;;4.30;1.00;;;;;;5108829;28;20311;-50
2022/05/04 04:21:50;;;;;;;25.77;8.60;;;4.40;1.00;;;;;;5110017;27;20198;-50
2022/05/04 04:24:16;;;;;;;20.27;8.70;;;4.40;1.00;;;;;;5106440;27;20357;-56
2022/05/04 04:26:41;;;;;;;21.27;9.30;;;4.50;99.90;;;;;;5109586;28;20536;-57
2022/05/04 04:29:07;;;;;;;16.57;8.87;;;4.60;99.90;;;;;;5108534;27;20200;-56
2022/05/04 04:31:33;;;;;;;25.27;9.80;;;4.60;74.40;;;;;;5110406;28;20200;-56
2022/05/04 04:34:01;;;;;;;22.80;8.83;;;4.80;1.00;;;;;;5108604;28;20277;-50
2022/05/04 04:36:26;;;;;;;20.90;8.60;;;4.90;1.00;;;;;;5110243;28;20944;-50
2022/05/04 04:38:52;;;;;;;19.07;9.03;;;4.90;1.00;;;;;;5100403;28;20441;-50
2022/05/04 04:41:18;;;;;;;24.47;9.63;;;4.90;1.00;;;;;;5109507;28;20196;-51
2022/05/04 04:43:44;;;;;;;24.60;10.07;;;5.00;99.90;;;;;;5105090;28;20912;-50
2022/05/04 04:46:09;;;;;;;19.07;8.93;;;5.10;99.90;;;;;;5110275;28;20434;-50
2022/05/04 04:48:35;;;;;;;24.07;8.70;;;5.20;99.90;;;;;;5109328;28;20279;-50
2022/05/04 04:51:00;;;;;;;27.90;9.17;;;5.20;99.90;;;;;;5110050;28;20564;-50
2022/05/04 04:53:26;;;;;;;23.53;8.43;;;5.30;99.90;;;;;;5109129;28;20192;-50
2022/05/04 04:55:52;;;;;;;16.40;8.80;;;5.30;99.90;;;;;;5102140;28;20205;-50
2022/05/04 04:58:18;;;;;;;18.83;9.10;;;5.40;99.90;;;;;;5102827;28;20196;-50
2022/05/04 05:00:43;;;;;;;20.63;7.50;;;5.40;99.90;;;;;;5110292;28;20445;-50
2022/05/04 05:03:09;;;;;;;20.20;10.67;;;5.50;99.90;;;;;;5103211;28;20955;-50
2022/05/04 05:05:35;;;;;;;20.57;7.77;;;5.60;99.90;;;;;;5109741;28;20220;-50
2022/05/04 05:08:00;;;;;;;15.57;7.80;;;5.70;99.90;;;;;;5108004;28;20600;-50
2022/05/04 05:10:26;;;;;;;17.80;7.90;;;5.80;57.70;;;;;;5105799;28;20232;-50
2022/05/04 05:12:52;;;;;;;25.60;8.90;;;5.90;52.10;;;;;;5098615;28;20184;-50
2022/05/04 05:18:03;;;;;;;18.70;8.00;;;6.10;23.20;;;;;;5097648;28;20250;-49
2022/05/04 05:20:30;;;;;;;18.37;7.23;;;6.30;1.00;;;;;;5099111;28;20449;-50
2022/05/04 05:22:57;;;;;;;12.77;7.47;;;6.50;1.00;;;;;;5113240;27;20437;-50
2022/05/04 05:25:22;;;;;;;21.37;8.00;;;6.60;1.00;;;;;;5101686;28;20473;-50
2022/05/04 05:27:48;;;;;;;20.73;7.60;;;6.70;1.00;;;;;;5112022;27;20437;-50
2022/05/04 05:30:14;;;;;;;17.50;7.70;;;6.80;1.00;;;;;;5112656;27;20203;-50
2022/05/04 05:32:39;;;;;;;19.80;8.17;;;7.10;1.00;;;;;;5114044;27;20555;-50
2022/05/04 05:35:06;;;;;;;25.80;7.17;;;7.40;1.00;;;;;;5108954;27;20216;-53
2022/05/04 05:37:31;;;;;;;16.10;6.00;;;7.80;1.00;;;;;;5113601;28;20191;-49
2022/05/04 05:39:57;;;;;;;16.83;5.20;;;8.10;1.00;;;;;;5111562;28;20484;-50
2022/05/04 05:42:22;;;;;;;16.30;5.20;;;8.40;1.00;;;;;;5113346;28;20196;-49
2022/05/04 05:44:48;;;;;;;15.07;4.60;;;8.60;1.00;;;;;;5111657;28;20966;-49
2022/05/04 05:47:14;;;;;;;15.47;3.30;;;8.70;99.90;;;;;;5112920;28;20307;-59
2022/05/04 05:49:39;;;;;;;11.07;3.30;;;8.90;99.90;;;;;;5112886;28;20184;-55
2022/05/04 05:52:08;;;;;;;13.03;3.30;;;9.10;99.90;;;;;;5112909;27;20184;-55
2022/05/04 05:54:34;;;;;;;6.53;3.27;;;9.20;99.90;;;;;;5095177;28;20283;-52
2022/05/04 05:57:00;;;;;;;7.07;3.40;;;9.30;99.90;;;;;;5103235;27;20891;-55
2022/05/04 05:59:25;;;;;;;14.53;3.03;;;9.50;99.90;;;;;;5112220;27;20196;-55
2022/05/04 06:01:51;;;;;;;7.10;3.00;;;9.70;99.90;;;;;;5103838;28;20224;-54
2022/05/04 06:04:16;;;;;;;13.10;2.50;;;9.80;99.90;;;;;;5104670;28;20212;-54
2022/05/04 06:06:42;;;;;;;11.40;3.10;;;10.00;99.90;;;;;;5112003;28;20189;-54
2022/05/04 06:09:07;;;;;;;4.97;2.70;;;10.20;99.90;;;;;;5105042;28;20170;-54
2022/05/04 06:11:34;;;;;;;13.10;4.00;;;10.20;99.90;;;;;;5099418;28;20170;-54
2022/05/04 06:14:00;;;;;;;9.90;3.00;;;10.30;99.90;;;;;;5093062;28;20189;-56
2022/05/04 06:16:25;;;;;;;7.97;3.03;;;10.30;99.90;;;;;;5093153;28;20763;-55
2022/05/04 06:18:51;;;;;;;12.30;2.33;;;10.30;99.90;;;;;;5095094;28;20773;-53
2022/05/04 06:21:16;;;;;;;14.53;2.30;;;10.30;99.90;;;;;;5093691;28;20189;-55
2022/05/04 06:23:42;;;;;;;5.33;2.07;;;10.40;99.90;;;;;;5101065;28;20195;-56
2022/05/04 06:26:07;;;;;;;4.70;2.03;;;10.50;99.90;;;;;;5108531;28;21139;-55
2022/05/04 06:28:33;;;;;;;8.40;2.40;;;10.70;99.90;;;;;;5111997;27;20192;-54
2022/05/04 06:36:27;;;;;;;9.47;2.70;;;11.10;99.90;;;;;;5106870;28;20421;-54
2022/05/04 06:38:52;;;;;;;9.43;2.70;;;11.30;99.90;;;;;;5108735;28;20414;-54
2022/05/04 06:41:18;;;;;;;7.43;2.53;;;11.40;99.90;;;;;;5102769;28;20193;-54
2022/05/04 06:43:45;;;;;;;6.30;2.50;;;11.40;99.90;;;;;;5106761;28;20219;-55
2022/05/04 06:46:11;;;;;;;20.97;2.57;;;11.50;99.90;;;;;;5098324;27;20180;-54
2022/05/04 06:48:37;;;;;;;11.83;2.53;;;11.40;99.90;;;;;;5105038;27;20438;-54
2022/05/04 06:51:02;;;;;;;5.67;1.90;;;11.40;99.90;;;;;;5111574;28;20555;-54
2022/05/04 06:53:28;;;;;;;9.13;2.30;;;11.60;99.90;;;;;;5109358;27;20200;-54
2022/05/04 06:55:54;;;;;;;6.60;2.27;;;11.90;99.90;;;;;;5107111;28;20200;-53
2022/05/04 06:58:19;;;;;;;11.23;2.30;;;12.30;99.90;;;;;;5101097;28;20193;-53
2022/05/04 07:00:45;;;;;;;6.33;2.03;;;12.60;99.90;;;;;;5110136;28;20196;-54
2022/05/04 07:03:10;;;;;;;5.63;1.77;;;12.40;99.90;;;;;;5108290;28;20671;-49
2022/05/04 07:05:36;;;;;;;10.87;2.37;;;12.60;99.90;;;;;;5104673;28;20216;-49
2022/05/04 07:08:02;;;;;;;7.23;2.30;;;12.60;99.90;;;;;;5104994;28;20184;-49
2022/05/04 07:10:28;;;;;;;10.27;2.37;;;12.80;99.90;;;;;;5095337;28;20228;-51
2022/05/04 07:12:53;;;;;;;8.67;2.40;;;12.90;99.90;;;;;;5095964;27;20459;-49
2022/05/04 07:15:19;;;;;;;11.93;2.83;;;12.40;99.90;;;;;;5107668;28;20206;-49
2022/05/04 07:17:44;;;;;;;8.30;3.10;;;12.20;99.90;;;;;;5101510;27;20192;-50
2022/05/04 07:20:10;;;;;;;6.10;2.50;;;12.10;99.90;;;;;;5107546;28;20345;-49
2022/05/04 07:22:36;;;;;;;10.17;3.07;;;12.10;99.90;;;;;;5111050;27;20654;-50
2022/05/04 07:25:03;;;;;;;10.13;3.47;;;12.50;99.90;;;;;;5103738;28;20562;-49
2022/05/04 07:27:28;;;;;;;10.87;3.33;;;13.20;99.90;;;;;;5110988;28;20279;-49
2022/05/04 07:29:54;;;;;;;6.60;2.40;;;13.60;99.90;;;;;;5111413;27;20970;-49
2022/05/04 07:32:19;;;;;;;8.20;2.67;;;13.70;99.90;;;;;;5107126;27;20242;-49
2022/05/04 07:34:45;;;;;;;9.80;2.40;;;13.60;99.90;;;;;;5099166;28;20188;-49
2022/05/04 07:37:11;;;;;;;7.30;2.40;;;13.60;99.90;;;;;;5110614;27;20203;-49
2022/05/04 07:42:24;;;;;;;5.53;2.40;;;13.00;99.90;;;;;;5104391;28;20413;-49
2022/05/04 07:44:51;;;;;;;8.67;2.80;;;12.90;99.90;;;;;;5110874;28;20469;-49
2022/05/04 07:47:17;;;;;;;18.67;3.87;;;12.90;99.90;;;;;;5108033;28;20486;-49
2022/05/04 07:49:43;;;;;;;9.83;2.97;;;13.60;99.90;;;;;;5111307;28;20922;-54
2022/05/04 07:52:08;;;;;;;7.07;2.53;;;14.40;99.90;;;;;;5106156;28;20471;-53
2022/05/04 07:54:34;;;;;;;3.80;2.10;;;14.80;99.90;;;;;;5096497;28;20196;-53
2022/05/04 07:56:59;;;;;;;7.97;2.23;;;14.90;99.90;;;;;;5109265;27;20606;-49
2022/05/04 07:59:25;;;;;;;5.17;2.47;;;14.90;99.90;;;;;;5110661;28;20572;-50
2022/05/04 08:04:34;;;;;;;6.80;2.20;;;14.50;99.90;;;;;;5108256;28;20234;-49
2022/05/04 08:07:01;;;;;;;7.00;2.10;;;14.20;99.90;;;;;;5103582;28;20435;-49
2022/05/04 08:09:26;;;;;;;6.47;3.00;;;14.30;99.90;;;;;;5102791;28;20198;-49
2022/05/04 08:11:52;;;;;;;9.97;2.37;;;14.30;99.90;;;;;;5109895;27;20822;-49
2022/05/04 08:14:18;;;;;;;10.30;2.73;;;14.50;99.90;;;;;;5110711;27;20238;-49
2022/05/04 08:16:44;;;;;;;10.30;3.20;;;14.60;99.90;;;;;;5110414;27;20658;-49
2022/05/04 08:19:09;;;;;;;7.73;2.93;;;14.80;99.90;;;;;;5109627;28;20539;-50
2022/05/04 08:21:37;;;;;;;8.80;2.90;;;15.00;99.90;;;;;;5109747;28;20223;-49
2022/05/04 08:24:03;;;;;;;4.47;2.23;;;15.10;99.90;;;;;;5109197;28;20250;-51
2022/05/04 08:26:29;;;;;;;3.10;2.00;;;15.60;99.90;;;;;;5109877;28;20394;-49
2022/05/04 08:28:54;;;;;;;14.43;2.43;;;15.80;99.90;;;;;;5110709;28;20907;-49
2022/05/04 08:31:21;;;;;;;10.57;3.07;;;15.90;99.90;;;;;;5109901;28;20324;-50
2022/05/04 08:33:48;;;;;;;10.63;2.60;;;16.00;99.90;;;;;;5110338;28;20188;-51
2022/05/04 08:36:14;;;;;;;10.27;2.87;;;16.20;99.90;;;;;;5110639;28;20505;-50
2022/05/04 08:38:39;;;;;;;6.63;2.30;;;16.40;99.90;;;;;;5110217;28;20434;-49
2022/05/04 08:41:06;;;;;;;6.47;2.20;;;16.50;99.90;;;;;;5092288;28;20188;-49
2022/05/04 08:43:32;;;;;;;7.13;2.63;;;16.50;99.90;;;;;;5110581;28;20176;-50
2022/05/04 08:46:01;;;;;;;9.40;2.50;;;16.40;99.90;;;;;;5110400;28;20473;-53
2022/05/04 08:48:28;;;;;;;8.47;2.90;;;16.10;99.90;;;;;;5108780;28;20429;-53
2022/05/04 08:50:54;;;;;;;8.30;2.53;;;16.30;99.90;;;;;;5103592;28;20951;-53
2022/05/04 08:53:20;;;;;;;7.70;2.37;;;16.30;99.90;;;;;;5096025;28;20422;-53
2022/05/04 08:55:47;;;;;;;6.37;2.83;;;15.90;99.90;;;;;;5097791;28;20514;-54
2022/05/04 08:58:13;;;;;;;7.13;2.90;;;15.50;99.90;;;;;;5094302;28;20701;-54
2022/05/04 09:00:39;;;;;;;5.30;2.47;;;15.10;99.90;;;;;;5094032;28;20494;-53
2022/05/04 09:03:07;;;;;;;12.10;3.70;;;15.30;99.90;;;;;;5103591;28;20449;-51
2022/05/04 09:05:40;;;;;;;8.23;2.77;;;15.30;99.90;;;;;;5101422;28;20454;-55
2022/05/04 09:08:06;;;;;;;7.97;3.17;;;15.30;99.90;;;;;;5109405;27;20517;-53
2022/05/04 09:10:40;;;;;;;6.30;2.70;;;15.60;99.90;;;;;;5112898;28;20426;-54
2022/05/04 09:13:06;;;;;;;5.27;2.60;;;15.40;99.90;;;;;;5113653;27;20454;-54
2022/05/04 09:15:35;;;;;;;11.70;3.33;;;14.80;99.90;;;;;;5113650;28;20438;-53
2022/05/04 09:18:05;;;;;;;11.17;3.30;;;15.00;99.90;;;;;;5112635;28;20433;-53
2022/05/04 09:20:45;;;;;;;4.93;2.60;;;15.20;99.90;;;;;;5114422;28;20426;-53
2022/05/04 09:23:17;;;;;;;6.37;3.00;;;15.70;99.90;;;;;;5114314;28;20483;-53
2022/05/04 09:25:44;;;;;;;6.30;3.00;;;16.10;99.90;;;;;;5114221;28;20974;-54
2022/05/04 09:28:12;;;;;;;8.90;2.80;;;16.40;99.90;;;;;;5113557;28;20448;-53
2022/05/04 09:30:46;;;;;;;5.80;2.90;;;16.80;99.90;;;;;;5114215;28;20601;-52
2022/05/04 09:33:16;;;;;;;8.40;3.30;;;17.30;99.90;;;;;;5114138;28;20429;-53
2022/05/04 09:35:42;;;;;;;8.27;2.70;;;17.20;99.90;;;;;;5111375;28;20752;-54
2022/05/04 09:46:46;;;;;;;5.13;2.60;;;16.00;99.90;;;;;;5093756;28;20918;-49
2022/05/04 09:49:20;;;;;;;8.30;3.33;;;15.50;99.90;;;;;;5093501;28;20442;-49
2022/05/04 09:51:49;;;;;;;10.50;3.57;;;15.30;99.90;;;;;;5093513;28;20412;-49
2022/05/04 09:54:17;;;;;;;22.57;3.80;;;15.10;99.90;;;;;;5093293;28;20770;-49
2022/05/04 09:56:45;;;;;;;10.33;3.57;;;15.00;99.90;;;;;;5093075;28;20411;-50
2022/05/04 09:59:13;;;;;;;4.60;3.57;;;15.00;99.90;;;;;;5093322;28;20407;-55
2022/05/04 10:01:40;;;;;;;13.33;3.57;;;14.90;99.90;;;;;;5074892;28;20430;-54
2022/05/04 10:04:06;;;;;;;6.97;3.00;;;14.70;99.90;;;;;;5093218;28;20509;-54
2022/05/04 10:06:32;;;;;;;13.17;3.30;;;14.90;99.90;;;;;;5093781;28;20403;-54
2022/05/04 10:08:57;;;;;;;8.50;3.27;;;15.20;99.90;;;;;;5094583;28;20193;-55
2022/05/04 10:11:23;;;;;;;8.60;3.20;;;15.20;99.90;;;;;;5094363;28;20411;-55
2022/05/04 10:13:54;;;;;;;7.63;2.67;;;15.60;99.90;;;;;;5094670;28;20208;-54
2022/05/04 10:16:20;;;;;;;9.77;3.10;;;16.30;99.90;;;;;;5094551;28;20245;-52
2022/05/04 10:18:47;;;;;;;7.60;3.30;;;16.90;99.90;;;;;;5094326;28;20470;-53
2022/05/04 10:21:15;;;;;;;7.03;3.20;;;16.90;99.90;;;;;;5094396;28;20423;-54
2022/05/04 10:23:50;;;;;;;11.20;4.03;;;16.30;99.90;;;;;;5094206;28;20406;-54
2022/05/04 10:26:17;;;;;;;8.20;3.40;;;15.90;99.90;;;;;;5094089;28;20403;-54
2022/05/04 10:30:30;;;;;;;8.50;3.70;;;15.60;99.90;;;;;;5094196;28;20705;-54
2022/05/04 10:31:29;;;;;;;6.03;3.20;;;15.30;99.90;;;;;;5094169;28;20549;-54
2022/05/04 10:33:56;;;;;;;8.53;3.83;;;15.30;99.90;;;;;;5094101;28;20482;-53
2022/05/04 10:36:32;;;;;;;9.07;4.33;;;15.40;99.90;;;;;;5094140;28;20677;-55
2022/05/04 10:39:02;;;;;;;7.83;3.67;;;15.50;99.90;;;;;;5093998;28;20399;-54
2022/05/04 10:41:35;;;;;;;7.53;3.77;;;15.30;99.90;;;;;;5093890;28;20424;-55
2022/05/04 10:44:01;;;;;;;7.53;3.20;;;15.50;99.90;;;;;;5093874;28;20388;-54
2022/05/04 10:46:30;;;;;;;8.50;3.53;;;15.80;99.90;;;;;;5093927;28;20718;-54
2022/05/04 10:49:05;;;;;;;8.50;3.47;;;16.30;99.90;;;;;;5093760;28;20627;-54
2022/05/04 10:51:33;;;;;;;7.23;3.63;;;16.60;99.90;;;;;;5093697;28;20406;-54
2022/05/04 10:54:02;;;;;;;6.93;3.60;;;16.50;99.90;;;;;;5093766;28;20412;-54
2022/05/04 10:56:36;;;;;;;8.00;4.10;;;16.70;99.90;;;;;;5093479;28;20832;-54
2022/05/04 10:59:02;;;;;;;8.87;3.60;;;17.00;99.90;;;;;;5093572;28;20391;-54
2022/05/04 11:01:31;;;;;;;8.90;3.90;;;17.70;99.90;;;;;;5093592;28;20460;-53
2022/05/04 11:03:57;;;;;;;9.80;3.70;;;18.30;99.90;;;;;;5093428;28;20688;-54
2022/05/04 11:06:32;;;;;;;7.60;3.60;;;18.30;99.90;;;;;;5092924;28;20407;-54
2022/05/04 11:09:06;;;;;;;9.20;3.80;;;17.90;99.90;;;;;;5091949;28;20578;-54
2022/05/04 11:11:32;;;;;;;4.30;3.43;;;17.50;99.90;;;;;;5091481;28;20784;-54
2022/05/04 11:13:58;;;;;;;8.03;3.53;;;17.30;99.90;;;;;;5091691;28;20929;-53
2022/05/04 11:16:26;;;;;;;13.30;5.40;;;17.20;99.90;;;;;;5092040;28;20435;-54
2022/05/04 11:18:52;;;;;;;11.33;4.93;;;16.90;99.90;;;;;;5091012;28;20678;-54
2022/05/04 11:21:18;;;;;;;8.50;3.23;;;16.70;99.90;;;;;;5102932;28;20461;-54
2022/05/04 11:23:49;;;;;;;7.87;3.50;;;16.70;99.90;;;;;;5106687;27;20438;-54
2022/05/04 11:26:20;;;;;;;7.13;3.73;;;16.50;99.90;;;;;;5111745;28;20418;-53
2022/05/04 11:28:46;;;;;;;7.07;3.43;;;16.50;99.90;;;;;;5111926;28;20379;-58
2022/05/04 11:31:12;;;;;;;7.17;3.40;;;16.60;99.90;;;;;;5112073;28;20398;-53
2022/05/04 11:33:39;;;;;;;9.60;3.87;;;17.10;99.90;;;;;;5112008;28;20184;-51
2022/05/04 11:36:05;;;;;;;6.10;3.83;;;16.80;99.90;;;;;;5098836;28;20407;-54
2022/05/04 11:38:30;;;;;;;5.70;3.70;;;16.40;99.90;;;;;;5108299;28;20526;-54
2022/05/04 11:40:56;;;;;;;8.67;4.50;;;16.30;99.90;;;;;;5110661;27;20200;-53
2022/05/04 11:43:35;;;;;;;13.00;4.30;;;16.60;99.90;;;;;;5108907;28;20192;-55
2022/05/04 11:46:09;;;;;;;7.30;3.70;;;17.40;99.90;;;;;;5091125;28;20694;-54
2022/05/04 11:48:43;;;;;;;9.87;3.87;;;18.70;99.90;;;;;;5095387;27;20774;-54
2022/05/04 11:51:11;;;;;;;4.87;3.80;;;19.50;99.90;;;;;;5093893;28;20508;-54
2022/05/04 11:53:36;;;;;;;7.40;3.50;;;20.40;99.90;;;;;;5111504;28;20873;-54
2022/05/04 11:56:03;;;;;;;12.17;4.90;;;21.00;99.90;;;;;;5111249;28;20433;-54
2022/05/04 11:58:30;;;;;;;12.53;3.80;;;20.40;99.90;;;;;;5110571;27;20195;-54
2022/05/04 12:00:56;;;;;;;7.70;4.13;;;20.40;99.90;;;;;;5099093;27;20438;-54
2022/05/04 12:03:24;;;;;;;10.50;4.03;;;20.30;99.90;;;;;;5106045;28;20781;-54
2022/05/04 12:05:50;;;;;;;9.07;4.10;;;19.90;99.90;;;;;;5110861;28;20479;-54
2022/05/04 12:08:19;;;;;;;9.23;3.80;;;19.50;99.90;;;;;;5110284;27;20430;-54
2022/05/04 12:10:45;;;;;;;9.90;4.07;;;18.60;99.90;;;;;;5110922;27;20438;-54
2022/05/04 12:13:14;;;;;;;7.53;4.30;;;17.70;99.90;;;;;;5111158;28;20829;-54
2022/05/04 12:15:41;;;;;;;11.83;4.67;;;17.30;99.90;;;;;;5110305;28;20445;-54
2022/05/04 12:18:06;;;;;;;9.27;4.30;;;17.20;99.90;;;;;;5111037;28;20488;-53
2022/05/04 12:20:34;;;;;;;11.57;4.37;;;16.90;99.90;;;;;;5108834;28;20446;-54
2022/05/04 12:23:00;;;;;;;9.20;3.53;;;17.40;99.90;;;;;;5109673;27;21020;-53
2022/05/04 12:25:26;;;;;;;7.97;3.80;;;17.90;99.90;;;;;;5102609;28;20498;-54
2022/05/04 12:27:54;;;;;;;9.93;3.70;;;17.70;99.90;;;;;;5090417;28;20423;-54
2022/05/04 12:33:08;;;;;;;9.10;3.67;;;18.20;99.90;;;;;;5109941;28;20796;-53
2022/05/04 12:35:41;;;;;;;9.73;4.63;;;19.10;99.90;;;;;;5110954;28;20411;-53
2022/05/04 12:38:07;;;;;;;7.60;4.03;;;19.50;99.90;;;;;;5110555;28;20414;-54
2022/05/04 12:40:33;;;;;;;8.50;4.20;;;18.90;99.90;;;;;;5109854;28;20430;-52
2022/05/04 12:43:01;;;;;;;4.83;3.23;;;18.50;99.90;;;;;;5110664;28;20441;-53
2022/05/04 12:45:27;;;;;;;8.77;4.10;;;18.70;99.90;;;;;;5110561;28;20501;-52
2022/05/04 12:47:54;;;;;;;7.50;3.73;;;19.30;99.90;;;;;;5093250;28;20423;-53
2022/05/04 12:50:21;;;;;;;5.77;3.70;;;19.40;99.90;;;;;;5094083;28;21101;-53
2022/05/04 12:52:48;;;;;;;8.20;4.77;;;19.40;99.90;;;;;;5090147;28;20418;-54
2022/05/04 12:55:14;;;;;;;9.30;4.97;;;19.50;99.90;;;;;;5101735;28;20446;-53
2022/05/04 12:57:40;;;;;;;14.37;4.03;;;18.70;99.90;;;;;;5110649;28;21095;-54
2022/05/04 13:00:06;;;;;;;6.70;3.70;;;18.80;99.90;;;;;;5110117;28;20454;-55
2022/05/04 13:02:31;;;;;;;11.00;3.60;;;19.20;99.90;;;;;;5110647;28;20176;-54
2022/05/04 13:04:57;;;;;;;12.63;9.37;;;19.10;99.90;;;;;;5110406;28;20458;-53
2022/05/04 13:07:23;;;;;;;11.33;6.50;;;19.30;99.90;;;;;;5110537;28;20237;-54
2022/05/04 13:09:49;;;;;;;7.50;3.83;;;19.90;99.90;;;;;;5108985;28;20566;-54
2022/05/04 13:12:14;;;;;;;14.30;4.17;;;20.60;99.90;;;;;;5103586;28;20521;-53
2022/05/04 13:14:40;;;;;;;11.33;4.03;;;21.20;99.90;;;;;;5109789;28;20438;-53